Time;durP1;ratioP1;P1;durP2;ratioP2;P2;SDS_P1;SDS_P2;PMS_P1;PMS_P2;Temp;Humidity;BMP_temperature;BMP_pressure;BME280_temperature;BME280_humidity;BME280_pressure;Samples;Min_cycle;Max_cycle;Signal;HPM_P1;HPM_P2
2021/10/04 00:02:26;;;;;;;;;;;;;;;8.57;86.32;100993.92;1381741;89;20383;-88
2021/10/04 00:04:52;;;;;;;;;;;;;;;8.53;86.86;100988.06;1381087;89;20293;-88
2021/10/04 00:07:18;;;;;;;;;;;;;;;8.52;86.00;100990.35;1381160;89;20294;-89
2021/10/04 00:09:45;;;;;;;;;;;;;;;8.53;85.18;100990.70;1381337;89;20284;-88
2021/10/04 00:12:11;;;;;;;;;;;;;;;8.55;85.63;100992.75;1381289;89;20293;-87
2021/10/04 00:14:38;;;;;;;;;;;;;;;8.56;86.10;100991.77;1376280;89;20301;-88
2021/10/04 00:17:04;;;;;;;;;;;;;;;8.58;86.19;100984.59;1381284;90;20262;-86
2021/10/04 00:19:30;;;;;;;;;;;;;;;8.62;85.27;100986.98;1381388;89;20250;-87
2021/10/04 00:21:57;;;;;;;;;;;;;;;8.63;84.71;100984.69;1376413;91;20337;-88
2021/10/04 00:24:23;;;;;;;;;;;;;;;8.64;84.44;100989.03;1376267;90;20240;-87
2021/10/04 00:26:55;;;;;;;;;;;;;;;8.64;84.82;100991.18;1376373;90;20301;-88
2021/10/04 00:29:21;;;;;;;;;;;;;;;8.57;85.60;100981.60;1376766;90;20272;-88
2021/10/04 00:35:14;;;;;;;;;;;;;;;8.44;84.83;100990.59;1376869;90;20249;-86
2021/10/04 00:37:40;;;;;;;;;;;;;;;8.31;85.45;100985.39;1377194;90;20249;-88
2021/10/04 00:40:10;;;;;;;;;;;;;;;8.23;85.50;100982.50;1377747;90;20249;-89
2021/10/04 00:42:36;;;;;;;;;;;;;;;8.13;86.28;100985.85;1364664;91;20211;-89
2021/10/04 00:45:04;;;;;;;;;;;;;;;8.06;86.02;100982.02;1377665;90;20256;-88
2021/10/04 00:47:31;;;;;;;;;;;;;;;8.02;85.83;100988.47;1368313;91;20218;-89
2021/10/04 00:49:57;;;;;;;;;;;;;;;7.97;86.11;100990.64;1377937;90;20234;-88
2021/10/04 00:52:23;;;;;;;;;;;;;;;7.94;87.68;100985.61;1377452;90;20794;-89
2021/10/04 00:54:49;;;;;;;;;;;;;;;7.89;87.38;100982.48;1376726;90;20241;-89
2021/10/04 00:57:16;;;;;;;;;;;;;;;7.86;87.31;100978.27;1377163;90;20867;-89
2021/10/04 00:59:42;;;;;;;;;;;;;;;7.81;87.85;100984.84;1381001;88;20234;-90
2021/10/04 01:02:08;;;;;;;;;;;;;;;7.76;89.01;100985.19;1383046;89;20279;-89
2021/10/04 01:04:38;;;;;;;;;;;;;;;7.74;88.44;100983.61;1379287;89;20241;-89
2021/10/04 01:07:05;;;;;;;;;;;;;;;7.69;87.95;100980.86;1379321;89;20368;-89
2021/10/04 01:09:31;;;;;;;;;;;;;;;7.63;88.19;100980.01;1401957;88;20246;-89
2021/10/04 01:11:58;;;;;;;;;;;;;;;7.59;88.83;100981.66;1401877;88;20833;-89
2021/10/04 01:14:24;;;;;;;;;;;;;;;7.57;88.49;100984.42;1401715;88;20253;-88
2021/10/04 01:16:51;;;;;;;;;;;;;;;7.56;88.39;100977.45;1401806;88;20336;-89
2021/10/04 01:19:18;;;;;;;;;;;;;;;7.56;87.88;100986.67;1401858;88;20322;-89
2021/10/04 01:21:45;;;;;;;;;;;;;;;7.57;87.14;100983.11;1401899;88;20730;-89
2021/10/04 01:24:12;;;;;;;;;;;;;;;7.62;86.47;100983.61;1402097;88;20774;-89
2021/10/04 01:26:38;;;;;;;;;;;;;;;7.63;87.09;100982.64;1401661;88;20336;-88
2021/10/04 01:29:05;;;;;;;;;;;;;;;7.66;86.47;100978.46;1401732;88;20353;-88
2021/10/04 01:31:31;;;;;;;;;;;;;;;7.72;85.80;100980.28;1401809;88;20752;-88
2021/10/04 01:34:46;;;;;;;;;;;;;;;7.75;85.72;100977.41;1401733;88;20730;-86
2021/10/04 01:37:12;;;;;;;;;;;;;;;7.76;85.48;100975.13;1401892;88;20320;-86
2021/10/04 01:39:38;;;;;;;;;;;;;;;7.73;85.64;100972.24;1401889;88;20745;-87
2021/10/04 01:42:05;;;;;;;;;;;;;;;7.71;85.61;100975.94;1401922;88;20246;-87
2021/10/04 01:44:31;;;;;;;;;;;;;;;7.67;85.29;100974.86;1401812;88;20228;-87
2021/10/04 01:46:57;;;;;;;;;;;;;;;7.66;86.13;100972.36;1401909;88;20305;-87
2021/10/04 01:49:23;;;;;;;;;;;;;;;7.59;86.61;100974.59;1401808;88;20253;-87
2021/10/04 01:51:49;;;;;;;;;;;;;;;7.54;88.06;100980.70;1401902;88;20367;-87
2021/10/04 01:54:15;;;;;;;;;;;;;;;7.47;89.09;100984.73;1401953;87;20233;-88
2021/10/04 01:56:42;;;;;;;;;;;;;;;7.44;88.70;100984.48;1401812;88;20737;-88
2021/10/04 01:59:15;;;;;;;;;;;;;;;7.40;88.16;100992.26;1400319;88;20834;-88
2021/10/04 02:01:41;;;;;;;;;;;;;;;7.37;88.14;100996.92;1399541;88;21105;-87
2021/10/04 02:04:07;;;;;;;;;;;;;;;7.31;88.29;100997.34;1399295;88;20232;-87
2021/10/04 02:06:33;;;;;;;;;;;;;;;7.29;88.69;100995.32;1399243;88;20821;-87
2021/10/04 02:08:59;;;;;;;;;;;;;;;7.23;88.22;100993.49;1398762;88;20246;-87
2021/10/04 02:11:25;;;;;;;;;;;;;;;7.21;88.12;100996.70;1399517;88;20708;-87
2021/10/04 02:13:53;;;;;;;;;;;;;;;7.17;88.94;101003.16;1399154;88;20324;-87
2021/10/04 02:16:20;;;;;;;;;;;;;;;7.10;88.63;100995.33;1398512;88;20321;-87
2021/10/04 02:18:54;;;;;;;;;;;;;;;7.05;89.73;100993.53;1399409;88;20291;-87
2021/10/04 02:21:20;;;;;;;;;;;;;;;7.05;89.08;100996.16;1385763;89;20239;-87
2021/10/04 02:23:46;;;;;;;;;;;;;;;7.05;88.77;100995.30;1398997;88;20767;-88
2021/10/04 02:26:13;;;;;;;;;;;;;;;7.06;88.30;100998.31;1399318;88;20239;-87
2021/10/04 02:28:39;;;;;;;;;;;;;;;7.04;88.43;100994.45;1399279;88;20276;-88
2021/10/04 02:31:05;;;;;;;;;;;;;;;7.07;88.44;100992.92;1399389;88;20952;-87
2021/10/04 02:33:31;;;;;;;;;;;;;;;7.10;88.39;100994.02;1399233;88;21219;-87
2021/10/04 02:36:33;;;;;;;;;;;;;;;7.13;88.62;100992.47;1399264;88;20231;-87
2021/10/04 02:39:01;;;;;;;;;;;;;;;7.18;87.60;100994.30;1399376;89;20336;-87
2021/10/04 02:41:27;;;;;;;;;;;;;;;7.22;87.32;100996.22;1399136;88;20324;-86
2021/10/04 02:43:52;;;;;;;;;;;;;;;7.24;87.13;100993.84;1399521;88;20304;-88
2021/10/04 02:46:18;;;;;;;;;;;;;;;7.23;87.15;100996.61;1399335;88;20320;-88
2021/10/04 02:48:45;;;;;;;;;;;;;;;7.19;88.01;100997.31;1399292;88;20246;-88
2021/10/04 02:51:13;;;;;;;;;;;;;;;7.15;88.20;100998.47;1399364;88;20224;-87
2021/10/04 02:53:39;;;;;;;;;;;;;;;7.10;88.73;100999.75;1398981;88;20327;-87
2021/10/04 02:56:08;;;;;;;;;;;;;;;7.05;88.71;101007.14;1398902;88;20283;-88
2021/10/04 02:58:34;;;;;;;;;;;;;;;7.01;88.90;101003.89;1399707;88;20745;-87
2021/10/04 03:01:01;;;;;;;;;;;;;;;6.95;89.48;100998.59;1399446;88;20231;-88
2021/10/04 03:03:27;;;;;;;;;;;;;;;6.93;90.00;101006.23;1400184;88;20232;-88
2021/10/04 03:05:53;;;;;;;;;;;;;;;6.88;90.34;101004.43;1399084;88;20298;-88
2021/10/04 03:08:19;;;;;;;;;;;;;;;6.86;91.46;101007.63;1399367;88;20283;-88
2021/10/04 03:10:45;;;;;;;;;;;;;;;6.84;91.25;101008.21;1399200;88;20381;-87
2021/10/04 03:13:11;;;;;;;;;;;;;;;6.82;92.13;101009.65;1399355;90;20224;-88
2021/10/04 03:15:37;;;;;;;;;;;;;;;6.81;92.09;101009.27;1399374;88;20335;-87
2021/10/04 03:18:03;;;;;;;;;;;;;;;6.78;92.35;101015.58;1399043;88;20254;-88
2021/10/04 03:20:29;;;;;;;;;;;;;;;6.77;92.71;101013.91;1399419;88;20320;-88
2021/10/04 03:22:57;;;;;;;;;;;;;;;6.77;91.53;101015.23;1399460;88;20328;-88
2021/10/04 03:25:24;;;;;;;;;;;;;;;6.79;91.25;101015.13;1399190;90;20812;-88
2021/10/04 03:27:50;;;;;;;;;;;;;;;6.80;90.69;101015.97;1399127;90;20246;-88
2021/10/04 03:30:16;;;;;;;;;;;;;;;6.78;90.26;101015.58;1399335;88;20827;-88
2021/10/04 03:32:43;;;;;;;;;;;;;;;6.80;90.23;101014.17;1398903;88;20766;-88
2021/10/04 03:35:09;;;;;;;;;;;;;;;6.84;89.63;101013.47;1399368;88;20231;-90
2021/10/04 03:41:12;;;;;;;;;;;;;;;6.90;88.89;101015.66;1399365;88;20373;-88
2021/10/04 03:43:38;;;;;;;;;;;;;;;6.90;90.67;101022.23;1399321;90;20857;-88
2021/10/04 03:46:04;;;;;;;;;;;;;;;6.89;90.33;101025.83;1398843;88;20329;-88
2021/10/04 03:48:30;;;;;;;;;;;;;;;6.87;89.77;101024.61;1398841;90;20222;-88
2021/10/04 03:54:06;;;;;;;;;;;;;;;6.84;89.03;101026.63;1398540;88;20305;-87
2021/10/04 04:00:09;;;;;;;;;;;;;;;6.76;88.14;101023.21;1399733;88;20298;-88
2021/10/04 04:02:35;;;;;;;;;;;;;;;6.66;88.80;101025.66;1399151;88;20246;-88
2021/10/04 04:05:02;;;;;;;;;;;;;;;6.59;89.09;101017.84;1399188;88;20231;-88
2021/10/04 04:07:28;;;;;;;;;;;;;;;6.52;88.76;101020.53;1398981;88;20313;-88
2021/10/04 04:09:55;;;;;;;;;;;;;;;6.46;88.55;101019.64;1399368;88;20261;-89
2021/10/04 04:12:22;;;;;;;;;;;;;;;6.42;88.28;101015.55;1370122;91;20698;-89
2021/10/04 04:14:48;;;;;;;;;;;;;;;6.36;88.46;101007.62;1399384;88;20278;-88
2021/10/04 04:17:15;;;;;;;;;;;;;;;6.31;89.16;101013.18;1399284;89;20346;-88
2021/10/04 04:19:41;;;;;;;;;;;;;;;6.25;90.09;101014.92;1399440;88;20782;-88
2021/10/04 04:22:07;;;;;;;;;;;;;;;6.18;89.80;101019.38;1398970;88;20225;-88
2021/10/04 04:24:33;;;;;;;;;;;;;;;6.12;90.28;101023.27;1399457;88;20276;-88
2021/10/04 04:27:04;;;;;;;;;;;;;;;6.10;90.48;101026.02;1399276;88;20744;-88
2021/10/04 04:29:26;;;;;;;;;;;;;;;6.10;89.89;101033.06;1399170;88;20291;-89
2021/10/04 04:31:52;;;;;;;;;;;;;;;6.10;90.30;101033.06;1399358;88;20328;-88
2021/10/04 04:34:18;;;;;;;;;;;;;;;6.12;90.61;101030.31;1399041;88;20231;-89
2021/10/04 04:36:44;;;;;;;;;;;;;;;6.14;91.09;101031.89;1398957;88;20737;-88
2021/10/04 04:39:10;;;;;;;;;;;;;;;6.17;90.92;101038.26;1399307;88;20231;-88
2021/10/04 04:41:36;;;;;;;;;;;;;;;6.20;90.57;101047.72;1398985;88;20224;-89
2021/10/04 04:44:02;;;;;;;;;;;;;;;6.18;90.02;101048.30;1399074;90;20254;-89
2021/10/04 04:46:37;;;;;;;;;;;;;;;6.22;89.94;101050.63;1400006;88;20253;-92
2021/10/04 04:49:03;;;;;;;;;;;;;;;6.25;89.80;101049.09;1398839;88;20276;-89
2021/10/04 04:51:29;;;;;;;;;;;;;;;6.29;89.47;101045.30;1399296;88;20350;-88
2021/10/04 04:53:58;;;;;;;;;;;;;;;6.31;89.19;101048.67;1399290;88;20224;-89
2021/10/04 04:56:24;;;;;;;;;;;;;;;6.30;89.03;101047.00;1399319;88;20797;-90
2021/10/04 04:58:50;;;;;;;;;;;;;;;6.30;88.59;101047.00;1399974;88;20238;-89
2021/10/04 05:01:16;;;;;;;;;;;;;;;6.32;89.15;101050.83;1402152;88;20773;-90
2021/10/04 05:03:48;;;;;;;;;;;;;;;6.36;88.29;101048.82;1402404;88;20276;-90
2021/10/04 05:06:14;;;;;;;;;;;;;;;6.37;87.64;101047.89;1402186;88;20276;-91
2021/10/04 05:08:40;;;;;;;;;;;;;;;6.37;87.30;101047.89;1402066;88;20390;-91
2021/10/04 05:11:06;;;;;;;;;;;;;;;6.40;87.43;101047.20;1403388;89;20833;-90
2021/10/04 05:13:33;;;;;;;;;;;;;;;6.40;87.92;101045.88;1387612;90;20417;-90
2021/10/04 05:16:00;;;;;;;;;;;;;;;6.40;88.42;101046.36;1402454;88;20276;-92
2021/10/04 05:18:26;;;;;;;;;;;;;;;6.40;89.77;101048.52;1387630;90;20833;-92
2021/10/04 05:20:53;;;;;;;;;;;;;;;6.42;91.36;101051.89;1403343;88;20231;-91
2021/10/04 05:23:19;;;;;;;;;;;;;;;6.47;92.03;101043.66;1402841;88;20320;-92
2021/10/04 05:25:45;;;;;;;;;;;;;;;6.53;91.13;101051.13;1403643;88;20245;-93
2021/10/04 05:28:11;;;;;;;;;;;;;;;6.60;91.11;101054.20;1402932;88;20253;-92
2021/10/04 05:30:37;;;;;;;;;;;;;;;6.67;90.70;101052.80;1403008;88;20231;-94
2021/10/04 05:33:03;;;;;;;;;;;;;;;6.75;90.34;101053.95;1403097;88;20265;-92
2021/10/04 05:35:35;;;;;;;;;;;;;;;6.86;90.20;101055.00;1403330;88;20245;-92
2021/10/04 05:38:01;;;;;;;;;;;;;;;6.97;89.72;101058.55;1402808;88;20328;-92
2021/10/04 05:40:33;;;;;;;;;;;;;;;7.08;89.34;101057.79;1388034;89;20929;-90
2021/10/04 05:43:14;;;;;;;;;;;;;;;7.18;89.07;101064.06;1373519;91;20811;-93
2021/10/04 05:45:40;;;;;;;;;;;;;;;7.27;88.87;101055.14;1404476;88;20737;-92
2021/10/04 05:48:07;;;;;;;;;;;;;;;7.39;88.85;101060.83;1404033;88;20224;-92
2021/10/04 05:50:34;;;;;;;;;;;;;;;7.51;88.95;101060.41;1403672;88;20859;-94
2021/10/04 05:53:00;;;;;;;;;;;;;;;7.61;88.83;101060.94;1403713;89;21262;-92
2021/10/04 05:55:26;;;;;;;;;;;;;;;7.72;88.88;101061.95;1403620;88;20223;-91
2021/10/04 05:57:52;;;;;;;;;;;;;;;7.83;88.93;101060.69;1403413;88;20731;-92
2021/10/04 06:00:18;;;;;;;;;;;;;;;7.96;88.94;101056.64;1389096;89;20252;-93
2021/10/04 06:02:45;;;;;;;;;;;;;;;8.10;88.88;101065.19;1404137;88;20943;-91
2021/10/04 06:05:11;;;;;;;;;;;;;;;8.25;88.68;101061.86;1404602;88;20292;-94
2021/10/04 06:07:37;;;;;;;;;;;;;;;8.40;88.59;101059.91;1407097;88;20239;-94
2021/10/04 06:10:07;;;;;;;;;;;;;;;8.55;88.74;101065.30;1404275;88;20252;-95
2021/10/04 06:12:33;;;;;;;;;;;;;;;8.74;88.46;101063.86;1401100;89;21515;-95
2021/10/04 06:15:00;;;;;;;;;;;;;;;8.85;87.89;101063.85;1406238;88;20789;-94
2021/10/04 06:17:27;;;;;;;;;;;;;;;8.98;87.60;101063.74;1412636;87;20259;-95
2021/10/04 06:20:06;;;;;;;;;;;;;;;9.13;87.11;101069.59;1392662;89;20230;-94
2021/10/04 06:22:33;;;;;;;;;;;;;;;9.23;86.63;101068.72;1407109;88;20704;-95
2021/10/04 06:25:01;;;;;;;;;;;;;;;9.40;86.64;101066.53;1406395;88;20256;-95
2021/10/04 06:27:36;;;;;;;;;;;;;;;9.60;86.36;101068.87;1405144;88;20736;-93
2021/10/04 06:30:04;;;;;;;;;;;;;;;9.80;85.72;101069.88;1403980;88;20860;-94
2021/10/04 06:32:32;;;;;;;;;;;;;;;9.99;85.08;101074.48;1405958;88;20772;-95
2021/10/04 06:34:58;;;;;;;;;;;;;;;10.21;84.78;101070.37;1405196;88;20260;-94
2021/10/04 06:37:25;;;;;;;;;;;;;;;10.44;83.33;101067.13;1390663;89;20736;-95
2021/10/04 06:42:27;;;;;;;;;;;;;;;10.71;80.60;101063.93;1296854;96;20318;-94
2021/10/04 06:44:56;;;;;;;;;;;;;;;10.85;80.70;101074.66;1291631;96;20236;-94
2021/10/04 06:47:23;;;;;;;;;;;;;;;11.02;80.89;101071.37;1291885;96;20357;-95
2021/10/04 06:49:50;;;;;;;;;;;;;;;11.15;80.10;101067.13;1283692;97;21298;-96
2021/10/04 06:52:17;;;;;;;;;;;;;;;11.29;79.82;101072.54;1283572;98;20282;-94
2021/10/04 06:54:50;;;;;;;;;;;;;;;11.44;80.17;101075.63;1291570;96;20236;-94
2021/10/04 06:57:16;;;;;;;;;;;;;;;11.58;79.55;101072.58;1292626;96;20322;-96
2021/10/04 06:59:42;;;;;;;;;;;;;;;11.75;79.08;101079.84;1337532;92;20282;-85
2021/10/04 07:02:08;;;;;;;;;;;;;;;11.93;78.67;101075.20;1363333;90;20340;-84
2021/10/04 07:04:34;;;;;;;;;;;;;;;12.06;77.62;101078.41;1337987;92;20787;-85
2021/10/04 07:07:01;;;;;;;;;;;;;;;12.24;78.14;101076.36;1338668;90;20758;-86
2021/10/04 07:09:27;;;;;;;;;;;;;;;12.45;77.85;101075.66;1338139;92;20304;-86
2021/10/04 07:11:53;;;;;;;;;;;;;;;12.62;77.40;101076.23;1338106;92;20329;-85
2021/10/04 07:14:19;;;;;;;;;;;;;;;12.82;77.32;101082.31;1338234;92;20349;-86
2021/10/04 07:16:46;;;;;;;;;;;;;;;12.99;76.29;101076.72;1338402;92;20328;-85
2021/10/04 07:19:12;;;;;;;;;;;;;;;13.15;74.07;101075.23;1338284;92;20237;-85
2021/10/04 07:21:38;;;;;;;;;;;;;;;13.32;74.48;101074.46;1338392;93;20244;-85
2021/10/04 07:24:04;;;;;;;;;;;;;;;13.50;75.41;101076.66;1338118;92;20297;-85
2021/10/04 07:26:31;;;;;;;;;;;;;;;13.70;73.95;101069.38;1338238;92;20319;-84
2021/10/04 07:29:00;;;;;;;;;;;;;;;13.87;73.55;101069.53;1338214;92;20319;-86
2021/10/04 07:31:26;;;;;;;;;;;;;;;14.07;74.48;101068.83;1338233;90;20318;-85
2021/10/04 07:33:52;;;;;;;;;;;;;;;14.27;72.80;101071.67;1338350;93;20736;-85
2021/10/04 07:36:17;;;;;;;;;;;;;;;14.51;72.95;101070.15;1363944;90;20235;-85
2021/10/04 07:38:44;;;;;;;;;;;;;;;14.73;70.74;101065.65;1338889;93;20252;-86
2021/10/04 07:41:10;;;;;;;;;;;;;;;14.91;70.63;101067.39;1338948;93;20796;-86
2021/10/04 07:43:36;;;;;;;;;;;;;;;15.13;70.78;101061.45;1339204;92;20244;-85
2021/10/04 07:46:04;;;;;;;;;;;;;;;15.37;71.31;101070.03;1338996;92;20266;-85
2021/10/04 07:48:30;;;;;;;;;;;;;;;15.55;70.52;101059.23;1338964;92;20352;-86
2021/10/04 07:50:57;;;;;;;;;;;;;;;15.71;67.42;101067.29;1338909;92;20757;-85
2021/10/04 07:53:22;;;;;;;;;;;;;;;15.83;67.97;101070.47;1339015;92;20259;-85
2021/10/04 07:55:48;;;;;;;;;;;;;;;15.96;67.66;101070.78;1338927;93;20244;-85
2021/10/04 07:58:14;;;;;;;;;;;;;;;16.10;66.51;101065.27;1339319;91;20275;-85
2021/10/04 08:00:40;;;;;;;;;;;;;;;16.23;64.68;101069.61;1338862;92;20259;-85
2021/10/04 08:03:06;;;;;;;;;;;;;;;16.38;65.00;101070.26;1337441;92;20810;-85
2021/10/04 08:05:32;;;;;;;;;;;;;;;16.52;65.53;101068.22;1335716;93;20341;-86
2021/10/04 08:07:58;;;;;;;;;;;;;;;16.69;65.77;101069.84;1336078;92;20237;-86
2021/10/04 08:10:24;;;;;;;;;;;;;;;16.82;61.93;101065.81;1333819;93;20765;-87
2021/10/04 08:12:51;;;;;;;;;;;;;;;16.89;60.77;101065.47;1336983;92;20334;-86
2021/10/04 08:15:18;;;;;;;;;;;;;;;16.95;61.17;101055.92;1335859;93;20267;-86
2021/10/04 08:17:43;;;;;;;;;;;;;;;17.12;63.16;101058.84;1332835;93;20251;-87
2021/10/04 08:20:10;;;;;;;;;;;;;;;17.23;59.14;101057.59;1332968;93;20223;-86
2021/10/04 08:22:38;;;;;;;;;;;;;;;17.42;63.12;101056.33;1333289;93;20356;-86
2021/10/04 08:25:05;;;;;;;;;;;;;;;17.62;60.78;101054.02;1333248;93;20297;-86
2021/10/04 08:27:31;;;;;;;;;;;;;;;17.82;61.59;101049.88;1332931;93;20290;-86
2021/10/04 08:30:04;;;;;;;;;;;;;;;17.98;59.81;101053.77;1333194;93;20252;-86
2021/10/04 08:32:30;;;;;;;;;;;;;;;18.15;58.29;101046.89;1333793;93;20251;-86
2021/10/04 08:34:56;;;;;;;;;;;;;;;18.34;61.04;101046.38;1333910;93;20245;-86
2021/10/04 08:37:21;;;;;;;;;;;;;;;18.53;56.79;101046.83;1334248;93;20245;-87
2021/10/04 08:39:53;;;;;;;;;;;;;;;18.73;58.02;101045.28;1334235;93;20355;-87
2021/10/04 08:42:19;;;;;;;;;;;;;;;18.92;56.12;101038.02;1333925;93;20236;-87
2021/10/04 08:44:47;;;;;;;;;;;;;;;19.12;56.77;101039.59;1333897;93;20281;-88
2021/10/04 08:47:13;;;;;;;;;;;;;;;19.17;54.08;101035.02;1333806;93;20801;-87
2021/10/04 08:49:39;;;;;;;;;;;;;;;19.14;51.28;101032.71;1333787;93;20415;-87
2021/10/04 08:52:05;;;;;;;;;;;;;;;19.31;55.25;101044.88;1333866;93;20274;-85
2021/10/04 08:54:31;;;;;;;;;;;;;;;19.47;54.27;101037.59;1334272;93;20252;-86
2021/10/04 08:56:58;;;;;;;;;;;;;;;19.63;55.04;101036.00;1333726;93;20244;-85
2021/10/04 08:59:25;;;;;;;;;;;;;;;19.81;54.39;101035.05;1332112;93;20773;-84
2021/10/04 09:01:52;;;;;;;;;;;;;;;19.99;55.38;101033.23;1316042;94;20275;-85
2021/10/04 09:04:20;;;;;;;;;;;;;;;20.22;56.13;101039.70;1327763;93;20252;-85
2021/10/04 09:06:46;;;;;;;;;;;;;;;20.20;50.27;101035.06;1329502;93;20377;-85
2021/10/04 09:09:13;;;;;;;;;;;;;;;20.32;51.92;101037.20;1329471;93;20275;-86
2021/10/04 09:11:41;;;;;;;;;;;;;;;20.44;48.31;101031.07;1316386;94;20814;-85
2021/10/04 09:14:12;;;;;;;;;;;;;;;20.54;48.18;101031.25;1329501;93;20305;-85
2021/10/04 09:16:52;;;;;;;;;;;;;;;20.69;50.45;101035.48;1329262;93;20297;-86
2021/10/04 09:19:33;;;;;;;;;;;;;;;20.77;48.93;101026.92;1328895;93;20804;-85
2021/10/04 09:22:11;;;;;;;;;;;;;;;20.93;47.68;101030.09;1330668;93;20251;-85
2021/10/04 09:24:40;;;;;;;;;;;;;;;21.28;48.67;101021.92;1334802;93;20355;-86
2021/10/04 09:27:36;;;;;;;;;;;;;;;21.66;45.80;101018.69;1331019;93;20252;-84
2021/10/04 09:30:17;;;;;;;;;;;;;;;21.98;43.42;101017.05;1334872;93;20252;-85
2021/10/04 09:32:47;;;;;;;;;;;;;;;22.37;45.31;101009.13;1334983;92;20258;-85
2021/10/04 09:35:22;;;;;;;;;;;;;;;22.82;45.08;101005.98;1335346;90;20340;-86
2021/10/04 09:38:00;;;;;;;;;;;;;;;22.92;44.43;100998.23;1334924;92;20795;-85
2021/10/04 09:40:33;;;;;;;;;;;;;;;23.22;39.96;100996.35;1335137;92;21215;-86
2021/10/04 09:43:00;;;;;;;;;;;;;;;23.52;39.60;100999.78;1335258;92;20833;-86
2021/10/04 09:45:26;;;;;;;;;;;;;;;23.73;39.58;100992.66;1335183;92;20274;-86
2021/10/04 09:47:54;;;;;;;;;;;;;;;23.98;39.83;100986.42;1335228;93;20356;-86
2021/10/04 09:50:30;;;;;;;;;;;;;;;24.19;40.14;100991.40;1335107;93;20319;-86
2021/10/04 09:52:58;;;;;;;;;;;;;;;24.33;39.63;100988.86;1335110;92;20337;-85
2021/10/04 09:55:37;;;;;;;;;;;;;;;24.36;34.41;100984.06;1335055;92;20267;-85
2021/10/04 09:58:15;;;;;;;;;;;;;;;24.48;35.05;100983.63;1335179;92;20251;-86
2021/10/04 10:00:47;;;;;;;;;;;;;;;24.73;37.27;100978.12;1341558;91;20357;-85
2021/10/04 10:03:16;;;;;;;;;;;;;;;24.93;35.60;100973.80;1342147;92;20268;-85
2021/10/04 10:05:46;;;;;;;;;;;;;;;24.93;31.71;100969.74;1342353;92;20350;-86
2021/10/04 10:08:12;;;;;;;;;;;;;;;24.87;30.16;100965.25;1342186;92;20252;-86
2021/10/04 10:10:41;;;;;;;;;;;;;;;25.17;34.64;100964.72;1342205;92;20238;-86
2021/10/04 10:13:08;;;;;;;;;;;;;;;25.31;30.76;100961.82;1342240;92;20238;-87
2021/10/04 10:15:35;;;;;;;;;;;;;;;25.42;32.13;100963.73;1342157;92;20334;-85
2021/10/04 10:18:16;;;;;;;;;;;;;;;25.40;33.57;100967.19;1342233;92;20417;-85
2021/10/04 10:20:43;;;;;;;;;;;;;;;25.28;29.51;100962.28;1341701;92;20347;-84
2021/10/04 10:23:10;;;;;;;;;;;;;;;25.33;32.29;100962.42;1340193;92;20251;-83
2021/10/04 10:25:39;;;;;;;;;;;;;;;25.29;29.86;100964.78;1321794;92;20261;-83
2021/10/04 10:28:10;;;;;;;;;;;;;;;25.40;29.94;100952.29;1319967;94;20268;-82
2021/10/04 10:30:38;;;;;;;;;;;;;;;25.49;29.93;100960.40;1320046;94;20365;-88
2021/10/04 10:33:04;;;;;;;;;;;;;;;25.55;30.78;100959.46;1322121;94;20246;-88
2021/10/04 10:35:48;;;;;;;;;;;;;;;25.53;31.10;100950.73;1337437;92;20398;-92
2021/10/04 10:38:16;;;;;;;;;;;;;;;25.39;30.93;100947.41;1303726;95;20291;-89
2021/10/04 10:40:42;;;;;;;;;;;;;;;25.61;31.31;100944.15;1288767;96;20258;-89
2021/10/04 10:43:10;;;;;;;;;;;;;;;25.70;29.90;100939.20;1301259;95;21234;-90
2021/10/04 10:45:42;;;;;;;;;;;;;;;25.88;31.24;100941.28;1293077;96;20867;-91
2021/10/04 10:48:09;;;;;;;;;;;;;;;26.09;31.48;100933.59;1288545;96;20340;-88
2021/10/04 10:50:37;;;;;;;;;;;;;;;26.17;29.02;100928.34;1301065;95;20284;-91
2021/10/04 10:53:13;;;;;;;;;;;;;;;26.16;28.37;100932.13;1288213;97;20348;-90
2021/10/04 10:55:44;;;;;;;;;;;;;;;26.10;28.84;100926.58;1301137;95;20344;-89
2021/10/04 10:58:13;;;;;;;;;;;;;;;26.11;28.58;100933.65;1287410;96;20922;-89
2021/10/04 11:00:42;;;;;;;;;;;;;;;26.17;29.15;100926.98;1291631;95;20757;-91
2021/10/04 11:03:14;;;;;;;;;;;;;;;26.22;28.04;100925.74;1304068;95;20811;-90
2021/10/04 11:05:44;;;;;;;;;;;;;;;26.37;29.50;100926.05;1317360;96;20246;-91
2021/10/04 11:08:13;;;;;;;;;;;;;;;26.51;30.64;100925.27;1317523;94;20367;-91
2021/10/04 11:10:52;;;;;;;;;;;;;;;26.59;29.13;100922.18;1317653;94;20261;-90
2021/10/04 11:13:31;;;;;;;;;;;;;;;26.57;27.28;100916.70;1327784;94;20265;-90
2021/10/04 11:16:13;;;;;;;;;;;;;;;26.80;29.27;100916.59;1340182;92;20304;-90
2021/10/04 11:18:47;;;;;;;;;;;;;;;26.84;28.74;100914.20;1340057;92;20344;-89
2021/10/04 11:21:16;;;;;;;;;;;;;;;26.92;27.75;100915.99;1340056;91;20370;-90
2021/10/04 11:23:44;;;;;;;;;;;;;;;27.27;27.79;100914.17;1339978;92;20381;-90
2021/10/04 11:26:18;;;;;;;;;;;;;;;27.25;27.77;100910.36;1340122;92;20244;-91
2021/10/04 11:28:44;;;;;;;;;;;;;;;27.16;28.76;100913.17;1340284;91;20258;-89
2021/10/04 11:31:16;;;;;;;;;;;;;;;27.19;28.20;100904.55;1340332;92;20289;-91
2021/10/04 11:33:52;;;;;;;;;;;;;;;27.48;28.39;100908.52;1340261;91;20378;-90
2021/10/04 11:36:24;;;;;;;;;;;;;;;27.76;28.66;100909.76;1340189;92;20259;-91
2021/10/04 11:38:57;;;;;;;;;;;;;;;27.99;29.13;100902.48;1340077;92;20810;-90
2021/10/04 11:41:28;;;;;;;;;;;;;;;28.00;27.38;100900.08;1340211;92;20319;-91
2021/10/04 11:43:58;;;;;;;;;;;;;;;28.05;27.91;100898.75;1340304;92;20259;-91
2021/10/04 11:46:28;;;;;;;;;;;;;;;27.70;27.53;100898.52;1340611;90;20310;-91
2021/10/04 11:49:08;;;;;;;;;;;;;;;27.92;28.86;100897.23;1340400;92;20340;-91
2021/10/04 11:51:44;;;;;;;;;;;;;;;27.76;27.25;100895.34;1339980;92;20244;-90
2021/10/04 11:54:04;;;;;;;;;;;;;;;28.01;27.07;100888.10;1341321;90;20266;-91
2021/10/04 11:56:32;;;;;;;;;;;;;;;28.06;26.95;100888.17;1338489;92;20781;-91
2021/10/04 11:58:58;;;;;;;;;;;;;;;28.33;27.51;100887.67;1362705;92;20251;-91
2021/10/04 12:01:33;;;;;;;;;;;;;;;28.62;28.28;100883.39;1338639;92;20727;-91
2021/10/04 12:04:09;;;;;;;;;;;;;;;28.69;25.67;100878.58;1333092;93;20236;-91
2021/10/04 12:06:37;;;;;;;;;;;;;;;28.86;27.15;100876.26;1338061;94;20250;-90
2021/10/04 12:09:05;;;;;;;;;;;;;;;29.12;27.05;100870.00;1338137;93;20393;-91
2021/10/04 12:11:32;;;;;;;;;;;;;;;29.32;26.20;100867.13;1338486;93;20811;-92
2021/10/04 12:13:59;;;;;;;;;;;;;;;28.95;24.53;100870.64;1338706;93;20244;-90
2021/10/04 12:16:29;;;;;;;;;;;;;;;29.01;25.15;100872.33;1338462;92;20800;-91
2021/10/04 12:18:57;;;;;;;;;;;;;;;29.05;24.72;100869.38;1321231;93;20346;-90
2021/10/04 12:21:45;;;;;;;;;;;;;;;29.39;25.10;100865.02;1332197;93;20311;-91
2021/10/04 12:24:20;;;;;;;;;;;;;;;29.66;25.38;100865.77;1336821;92;20304;-90
2021/10/04 12:26:55;;;;;;;;;;;;;;;29.74;25.11;100866.34;1337094;92;20252;-91
2021/10/04 12:29:51;;;;;;;;;;;;;;;29.90;26.79;100862.61;1336968;92;20251;-91
2021/10/04 12:32:26;;;;;;;;;;;;;;;30.05;24.40;100858.57;1321465;93;20237;-90
2021/10/04 12:35:12;;;;;;;;;;;;;;;30.29;24.27;100858.94;1337249;92;20237;-91
2021/10/04 12:37:56;;;;;;;;;;;;;;;30.41;24.02;100856.52;1338160;92;20251;-90
2021/10/04 12:40:26;;;;;;;;;;;;;;;30.54;24.58;100854.09;1338152;92;20341;-92
2021/10/04 12:42:55;;;;;;;;;;;;;;;30.50;22.69;100855.74;1338226;92;20779;-91
2021/10/04 12:45:20;;;;;;;;;;;;;;;30.51;23.57;100856.55;1338197;92;20347;-92
2021/10/04 12:47:59;;;;;;;;;;;;;;;30.69;23.78;100853.29;1336627;92;20244;-91
2021/10/04 12:50:29;;;;;;;;;;;;;;;30.64;21.76;100850.55;1337223;93;20742;-91
2021/10/04 12:53:12;;;;;;;;;;;;;;;30.92;23.59;100851.97;1338779;92;20293;-91
2021/10/04 12:55:48;;;;;;;;;;;;;;;31.09;22.70;100848.97;1338226;92;20750;-91
2021/10/04 12:58:14;;;;;;;;;;;;;;;30.65;23.65;100841.83;1338707;92;20251;-91
2021/10/04 13:00:40;;;;;;;;;;;;;;;31.17;23.93;100835.30;1353403;88;20946;-91
2021/10/04 13:03:06;;;;;;;;;;;;;;;31.36;22.61;100841.88;1352465;91;20381;-91
2021/10/04 13:05:33;;;;;;;;;;;;;;;31.73;22.85;100844.75;1351268;92;20279;-93